sensor_id;sensor_type;location;lat;lon;timestamp;pressure;altitude;pressure_sealevel;temperature;humidity
74573;BME280;63071;51.526;-0.134;2022-08-25T00:00:44;101270.22;;;28.68;42.61
74573;BME280;63071;51.526;-0.134;2022-08-25T00:03:11;101267.94;;;28.66;42.83
74573;BME280;63071;51.526;-0.134;2022-08-25T00:05:36;101265.63;;;28.65;42.96
74573;BME280;63071;51.526;-0.134;2022-08-25T00:08:02;101262.97;;;28.61;43.32
74573;BME280;63071;51.526;-0.134;2022-08-25T00:10:31;101253.00;;;28.62;43.02
74573;BME280;63071;51.526;-0.134;2022-08-25T00:12:57;101253.81;;;28.55;43.33
74573;BME280;63071;51.526;-0.134;2022-08-25T00:15:22;101244.59;;;28.52;43.82
74573;BME280;63071;51.526;-0.134;2022-08-25T00:17:48;101247.69;;;28.51;43.77
74573;BME280;63071;51.526;-0.134;2022-08-25T00:20:14;101242.31;;;28.47;43.85
74573;BME280;63071;51.526;-0.134;2022-08-25T00:22:40;101240.75;;;28.46;43.73
74573;BME280;63071;51.526;-0.134;2022-08-25T00:25:06;101240.00;;;28.46;44.43
74573;BME280;63071;51.526;-0.134;2022-08-25T00:27:32;101240.03;;;28.42;44.15
74573;BME280;63071;51.526;-0.134;2022-08-25T00:29:58;101227.38;;;28.39;44.79
74573;BME280;63071;51.526;-0.134;2022-08-25T00:32:24;101223.16;;;28.38;44.98
74573;BME280;63071;51.526;-0.134;2022-08-25T00:34:51;101222.00;;;28.39;44.71
74573;BME280;63071;51.526;-0.134;2022-08-25T00:37:18;101229.28;;;28.38;44.55
74573;BME280;63071;51.526;-0.134;2022-08-25T00:39:44;101229.66;;;28.41;44.33
74573;BME280;63071;51.526;-0.134;2022-08-25T00:42:10;101229.25;;;28.42;44.65
74573;BME280;63071;51.526;-0.134;2022-08-25T00:44:37;101228.91;;;28.40;45.10
74573;BME280;63071;51.526;-0.134;2022-08-25T00:47:05;101225.81;;;28.42;44.90
74573;BME280;63071;51.526;-0.134;2022-08-25T00:49:50;101227.38;;;28.39;45.46
74573;BME280;63071;51.526;-0.134;2022-08-25T00:52:47;101225.09;;;28.34;45.28
74573;BME280;63071;51.526;-0.134;2022-08-25T00:55:22;101222.84;;;28.29;45.66
74573;BME280;63071;51.526;-0.134;2022-08-25T00:57:55;101230.53;;;28.27;45.56
74573;BME280;63071;51.526;-0.134;2022-08-25T01:00:27;101232.84;;;28.25;45.86
74573;BME280;63071;51.526;-0.134;2022-08-25T01:02:53;101236.28;;;28.25;45.97
74573;BME280;63071;51.526;-0.134;2022-08-25T01:05:19;101236.31;;;28.22;46.28
74573;BME280;63071;51.526;-0.134;2022-08-25T01:07:46;101224.81;;;28.17;45.99
74573;BME280;63071;51.526;-0.134;2022-08-25T01:10:12;101232.50;;;28.15;46.30
74573;BME280;63071;51.526;-0.134;2022-08-25T01:12:39;101239.06;;;28.14;46.47
74573;BME280;63071;51.526;-0.134;2022-08-25T01:15:11;101222.56;;;28.12;46.50
74573;BME280;63071;51.526;-0.134;2022-08-25T01:17:48;101221.00;;;28.11;46.51
74573;BME280;63071;51.526;-0.134;2022-08-25T01:20:16;101217.19;;;28.09;47.00
74573;BME280;63071;51.526;-0.134;2022-08-25T01:22:44;101223.31;;;28.09;46.90
74573;BME280;63071;51.526;-0.134;2022-08-25T01:25:18;101221.81;;;28.08;47.14
74573;BME280;63071;51.526;-0.134;2022-08-25T01:27:46;101216.44;;;28.08;47.23
74573;BME280;63071;51.526;-0.134;2022-08-25T01:30:11;101214.53;;;28.05;47.23
74573;BME280;63071;51.526;-0.134;2022-08-25T01:32:37;101223.31;;;28.09;47.21
74573;BME280;63071;51.526;-0.134;2022-08-25T01:35:02;101213.38;;;28.06;47.55
74573;BME280;63071;51.526;-0.134;2022-08-25T01:37:28;101194.56;;;28.06;47.12
74573;BME280;63071;51.526;-0.134;2022-08-25T01:39:53;101178.84;;;28.05;47.60
74573;BME280;63071;51.526;-0.134;2022-08-25T01:45:19;101167.72;;;27.99;47.42
74573;BME280;63071;51.526;-0.134;2022-08-25T01:47:44;101181.53;;;28.01;47.68
74573;BME280;63071;51.526;-0.134;2022-08-25T01:50:10;101179.59;;;28.02;47.60
74573;BME280;63071;51.526;-0.134;2022-08-25T01:55:12;101175.38;;;28.04;47.72
74573;BME280;63071;51.526;-0.134;2022-08-25T01:57:37;101180.72;;;28.08;47.68
74573;BME280;63071;51.526;-0.134;2022-08-25T02:00:08;101183.81;;;28.06;47.74
74573;BME280;63071;51.526;-0.134;2022-08-25T02:02:37;101191.09;;;28.06;47.75
74573;BME280;63071;51.526;-0.134;2022-08-25T02:05:03;101179.22;;;28.03;47.81
74573;BME280;63071;51.526;-0.134;2022-08-25T02:07:30;101193.81;;;28.02;48.37
74573;BME280;63071;51.526;-0.134;2022-08-25T02:09:56;101186.53;;;27.99;48.15
74573;BME280;63071;51.526;-0.134;2022-08-25T02:12:22;101191.53;;;27.97;48.47
74573;BME280;63071;51.526;-0.134;2022-08-25T02:14:47;101196.53;;;27.99;48.17
74573;BME280;63071;51.526;-0.134;2022-08-25T02:17:13;101177.72;;;27.99;47.96
74573;BME280;63071;51.526;-0.134;2022-08-25T02:19:38;101180.38;;;28.02;48.67
74573;BME280;63071;51.526;-0.134;2022-08-25T02:22:04;101182.69;;;28.00;48.33
74573;BME280;63071;51.526;-0.134;2022-08-25T02:24:29;101176.56;;;27.96;48.31
74573;BME280;63071;51.526;-0.134;2022-08-25T02:26:55;101190.00;;;27.96;48.37
74573;BME280;63071;51.526;-0.134;2022-08-25T02:29:22;101211.47;;;28.03;48.06
74573;BME280;63071;51.526;-0.134;2022-08-25T02:31:48;101216.81;;;28.07;47.96
74573;BME280;63071;51.526;-0.134;2022-08-25T02:34:13;101210.25;;;28.11;47.96
74573;BME280;63071;51.526;-0.134;2022-08-25T02:36:39;101186.44;;;28.13;47.82
74573;BME280;63071;51.526;-0.134;2022-08-25T02:39:07;101166.50;;;28.11;48.38
74573;BME280;63071;51.526;-0.134;2022-08-25T02:41:34;101173.84;;;28.07;49.03
74573;BME280;63071;51.526;-0.134;2022-08-25T02:44:01;101176.53;;;28.03;49.15
74573;BME280;63071;51.526;-0.134;2022-08-25T02:46:27;101175.78;;;28.03;49.46
74573;BME280;63071;51.526;-0.134;2022-08-25T02:48:53;101178.84;;;28.01;49.50
74573;BME280;63071;51.526;-0.134;2022-08-25T02:51:21;101186.16;;;28.01;49.00
74573;BME280;63071;51.526;-0.134;2022-08-25T02:53:48;101201.47;;;28.00;49.03
74573;BME280;63071;51.526;-0.134;2022-08-25T02:56:15;101197.28;;;27.99;49.12
74573;BME280;63071;51.526;-0.134;2022-08-25T02:58:41;101177.72;;;28.02;49.42
74573;BME280;63071;51.526;-0.134;2022-08-25T03:01:07;101192.28;;;27.97;50.19
74573;BME280;63071;51.526;-0.134;2022-08-25T03:03:37;101180.06;;;27.89;50.09
74573;BME280;63071;51.526;-0.134;2022-08-25T03:06:08;101175.81;;;27.92;50.18
74573;BME280;63071;51.526;-0.134;2022-08-25T03:08:36;101170.06;;;27.90;50.36
74573;BME280;63071;51.526;-0.134;2022-08-25T03:11:03;101170.06;;;27.90;49.97
74573;BME280;63071;51.526;-0.134;2022-08-25T03:13:29;101154.75;;;27.90;50.66
74573;BME280;63071;51.526;-0.134;2022-08-25T03:15:54;101140.53;;;27.90;50.00
74573;BME280;63071;51.526;-0.134;2022-08-25T03:18:20;101139.00;;;27.89;50.35
74573;BME280;63071;51.526;-0.134;2022-08-25T03:20:47;101149.75;;;27.89;50.37
74573;BME280;63071;51.526;-0.134;2022-08-25T03:23:12;101144.75;;;27.87;50.16
74573;BME280;63071;51.526;-0.134;2022-08-25T03:25:39;101146.28;;;27.85;50.81
74573;BME280;63071;51.526;-0.134;2022-08-25T03:28:23;101139.81;;;27.75;50.93
74573;BME280;63071;51.526;-0.134;2022-08-25T03:30:49;101142.50;;;27.71;51.31
74573;BME280;63071;51.526;-0.134;2022-08-25T03:33:14;101135.63;;;27.70;50.97
74573;BME280;63071;51.526;-0.134;2022-08-25T03:35:39;101125.69;;;27.64;51.66
74573;BME280;63071;51.526;-0.134;2022-08-25T03:38:05;101130.31;;;27.60;51.80
74573;BME280;63071;51.526;-0.134;2022-08-25T03:40:30;101119.22;;;27.57;51.33
74573;BME280;63071;51.526;-0.134;2022-08-25T03:42:57;101122.28;;;27.56;51.50
74573;BME280;63071;51.526;-0.134;2022-08-25T03:45:23;101121.91;;;27.54;52.00
74573;BME280;63071;51.526;-0.134;2022-08-25T03:47:50;101106.19;;;27.49;51.90
74573;BME280;63071;51.526;-0.134;2022-08-25T03:50:18;101114.63;;;27.47;52.30
74573;BME280;63071;51.526;-0.134;2022-08-25T03:52:49;101114.25;;;27.45;52.14
74573;BME280;63071;51.526;-0.134;2022-08-25T03:55:14;101127.69;;;27.45;52.21
74573;BME280;63071;51.526;-0.134;2022-08-25T03:57:40;101135.34;;;27.47;52.17
74573;BME280;63071;51.526;-0.134;2022-08-25T04:00:07;101156.03;;;27.53;52.26
74573;BME280;63071;51.526;-0.134;2022-08-25T04:02:33;101162.56;;;27.56;51.87
74573;BME280;63071;51.526;-0.134;2022-08-25T04:04:58;101165.25;;;27.56;51.53
74573;BME280;63071;51.526;-0.134;2022-08-25T04:07:25;101156.00;;;27.57;51.48
74573;BME280;63071;51.526;-0.134;2022-08-25T04:09:53;101152.56;;;27.60;51.44
74573;BME280;63071;51.526;-0.134;2022-08-25T04:12:19;101152.94;;;27.62;51.29
74573;BME280;63071;51.526;-0.134;2022-08-25T04:14:44;101143.75;;;27.60;51.44
74573;BME280;63071;51.526;-0.134;2022-08-25T04:17:10;101137.19;;;27.64;52.08
74573;BME280;63071;51.526;-0.134;2022-08-25T04:19:35;101122.97;;;27.67;51.68
74573;BME280;63071;51.526;-0.134;2022-08-25T04:22:01;101112.66;;;27.66;51.39
74573;BME280;63071;51.526;-0.134;2022-08-25T04:24:26;101104.22;;;27.64;51.37
74573;BME280;63071;51.526;-0.134;2022-08-25T04:26:53;101100.38;;;27.61;51.47
74573;BME280;63071;51.526;-0.134;2022-08-25T04:29:22;101105.78;;;27.57;51.80
74573;BME280;63071;51.526;-0.134;2022-08-25T04:31:48;101106.53;;;27.58;51.37
74573;BME280;63071;51.526;-0.134;2022-08-25T04:34:19;101119.97;;;27.58;51.57
74573;BME280;63071;51.526;-0.134;2022-08-25T04:36:46;101128.78;;;27.58;51.85
74573;BME280;63071;51.526;-0.134;2022-08-25T04:39:11;101139.91;;;27.61;51.55
74573;BME280;63071;51.526;-0.134;2022-08-25T04:41:38;101150.25;;;27.62;51.91
74573;BME280;63071;51.526;-0.134;2022-08-25T04:44:04;101132.59;;;27.61;51.69
74573;BME280;63071;51.526;-0.134;2022-08-25T04:46:33;101142.94;;;27.63;51.26
74573;BME280;63071;51.526;-0.134;2022-08-25T04:49:00;101155.25;;;27.60;51.27
74573;BME280;63071;51.526;-0.134;2022-08-25T04:51:30;101169.44;;;27.57;51.33
74573;BME280;63071;51.526;-0.134;2022-08-25T04:54:00;101172.91;;;27.54;50.96
74573;BME280;63071;51.526;-0.134;2022-08-25T04:56:27;101167.91;;;27.56;51.54
74573;BME280;63071;51.526;-0.134;2022-08-25T04:58:54;101184.78;;;27.56;51.10
74573;BME280;63071;51.526;-0.134;2022-08-25T05:01:23;101202.03;;;27.55;51.02
74573;BME280;63071;51.526;-0.134;2022-08-25T05:03:59;101205.13;;;27.54;51.60
74573;BME280;63071;51.526;-0.134;2022-08-25T05:06:26;101222.00;;;27.54;51.52
74573;BME280;63071;51.526;-0.134;2022-08-25T05:08:53;101251.53;;;27.54;51.73
74573;BME280;63071;51.526;-0.134;2022-08-25T05:11:20;101279.16;;;27.55;51.69
74573;BME280;63071;51.526;-0.134;2022-08-25T05:13:48;101294.88;;;27.60;50.76
74573;BME280;63071;51.526;-0.134;2022-08-25T05:16:15;101291.00;;;27.65;50.91
74573;BME280;63071;51.526;-0.134;2022-08-25T05:18:41;101262.22;;;27.69;51.13
74573;BME280;63071;51.526;-0.134;2022-08-25T05:21:13;101259.53;;;27.69;50.42
74573;BME280;63071;51.526;-0.134;2022-08-25T05:23:39;101265.72;;;27.66;51.04
74573;BME280;63071;51.526;-0.134;2022-08-25T05:26:11;101256.88;;;27.65;51.09
74573;BME280;63071;51.526;-0.134;2022-08-25T05:28:38;101253.03;;;27.66;50.63
74573;BME280;63071;51.526;-0.134;2022-08-25T05:31:09;101251.13;;;27.63;50.69
74573;BME280;63071;51.526;-0.134;2022-08-25T05:33:37;101249.59;;;27.62;51.12
74573;BME280;63071;51.526;-0.134;2022-08-25T05:36:03;101253.84;;;27.60;51.23
74573;BME280;63071;51.526;-0.134;2022-08-25T05:38:29;101253.06;;;27.55;50.80
74573;BME280;63071;51.526;-0.134;2022-08-25T05:41:01;101251.16;;;27.56;51.38
74573;BME280;63071;51.526;-0.134;2022-08-25T05:43:27;101234.25;;;27.55;51.09
74573;BME280;63071;51.526;-0.134;2022-08-25T05:45:57;101232.38;;;27.52;51.41
74573;BME280;63071;51.526;-0.134;2022-08-25T05:48:25;101220.09;;;27.51;51.43
74573;BME280;63071;51.526;-0.134;2022-08-25T05:50:56;101218.94;;;27.49;51.75
74573;BME280;63071;51.526;-0.134;2022-08-25T05:53:23;101212.81;;;27.45;51.25
74573;BME280;63071;51.526;-0.134;2022-08-25T05:55:51;101205.19;;;27.40;51.52
74573;BME280;63071;51.526;-0.134;2022-08-25T05:58:17;101199.81;;;27.40;52.15
74573;BME280;63071;51.526;-0.134;2022-08-25T06:00:43;101200.19;;;27.42;51.43
74573;BME280;63071;51.526;-0.134;2022-08-25T06:03:08;101201.34;;;27.41;51.83
74573;BME280;63071;51.526;-0.134;2022-08-25T06:05:34;101212.81;;;27.45;51.34
74573;BME280;63071;51.526;-0.134;2022-08-25T06:07:59;101213.19;;;27.47;51.80
74573;BME280;63071;51.526;-0.134;2022-08-25T06:10:26;101211.31;;;27.44;51.20
74573;BME280;63071;51.526;-0.134;2022-08-25T06:12:51;101207.44;;;27.52;51.11
74573;BME280;63071;51.526;-0.134;2022-08-25T06:15:23;101206.66;;;27.51;51.52
74573;BME280;63071;51.526;-0.134;2022-08-25T06:17:50;101198.66;;;27.44;51.68
74573;BME280;63071;51.526;-0.134;2022-08-25T06:20:22;101191.34;;;27.41;51.53
74573;BME280;63071;51.526;-0.134;2022-08-25T06:22:48;101191.00;;;27.35;51.00
74573;BME280;63071;51.526;-0.134;2022-08-25T06:25:17;101184.88;;;27.31;51.68
74573;BME280;63071;51.526;-0.134;2022-08-25T06:27:43;101190.63;;;27.30;51.13
74573;BME280;63071;51.526;-0.134;2022-08-25T06:30:13;101176.47;;;27.26;51.25
74573;BME280;63071;51.526;-0.134;2022-08-25T06:32:40;101179.16;;;27.26;51.71
74573;BME280;63071;51.526;-0.134;2022-08-25T06:35:10;101177.59;;;27.21;51.54
74573;BME280;63071;51.526;-0.134;2022-08-25T06:37:36;101186.03;;;27.20;51.25
74573;BME280;63071;51.526;-0.134;2022-08-25T06:40:04;101199.44;;;27.20;51.85
74573;BME280;63071;51.526;-0.134;2022-08-25T06:42:30;101222.44;;;27.21;51.43
74573;BME280;63071;51.526;-0.134;2022-08-25T06:44:56;101228.97;;;27.27;51.89
74573;BME280;63071;51.526;-0.134;2022-08-25T06:47:21;101247.00;;;27.30;51.66
74573;BME280;63071;51.526;-0.134;2022-08-25T06:49:47;101242.00;;;27.32;51.61
74573;BME280;63071;51.526;-0.134;2022-08-25T06:52:12;101223.59;;;27.30;51.26
74573;BME280;63071;51.526;-0.134;2022-08-25T06:54:38;101232.78;;;27.33;51.02
74573;BME280;63071;51.526;-0.134;2022-08-25T06:57:05;101243.16;;;27.34;50.78
74573;BME280;63071;51.526;-0.134;2022-08-25T06:59:32;101251.94;;;27.35;51.30
74573;BME280;63071;51.526;-0.134;2022-08-25T07:01:59;101264.22;;;27.36;51.25
74573;BME280;63071;51.526;-0.134;2022-08-25T07:04:24;101277.28;;;27.37;51.23
74573;BME280;63071;51.526;-0.134;2022-08-25T07:06:50;101284.91;;;27.39;51.50
74573;BME280;63071;51.526;-0.134;2022-08-25T07:09:16;101287.22;;;27.41;51.44
74573;BME280;63071;51.526;-0.134;2022-08-25T07:11:42;101289.16;;;27.40;50.70
74573;BME280;63071;51.526;-0.134;2022-08-25T07:14:11;101283.41;;;27.42;50.87
74573;BME280;63071;51.526;-0.134;2022-08-25T07:16:38;101283.41;;;27.42;50.59
74573;BME280;63071;51.526;-0.134;2022-08-25T07:19:04;101259.63;;;27.36;50.93
74573;BME280;63071;51.526;-0.134;2022-08-25T07:21:31;101259.25;;;27.38;51.14
74573;BME280;63071;51.526;-0.134;2022-08-25T07:23:59;101250.44;;;27.37;51.15
74573;BME280;63071;51.526;-0.134;2022-08-25T07:26:29;101250.81;;;27.36;51.31
74573;BME280;63071;51.526;-0.134;2022-08-25T07:28:55;101250.44;;;27.37;50.80
74573;BME280;63071;51.526;-0.134;2022-08-25T07:31:21;101242.75;;;27.32;51.06
74573;BME280;63071;51.526;-0.134;2022-08-25T07:33:47;101250.44;;;27.30;50.98
74573;BME280;63071;51.526;-0.134;2022-08-25T07:36:31;101246.22;;;27.26;50.98
74573;BME280;63071;51.526;-0.134;2022-08-25T07:39:00;101259.63;;;27.22;51.29
74573;BME280;63071;51.526;-0.134;2022-08-25T07:41:31;101256.94;;;27.18;51.14
74573;BME280;63071;51.526;-0.134;2022-08-25T07:44:00;101259.63;;;27.18;50.93
74573;BME280;63071;51.526;-0.134;2022-08-25T07:46:25;101257.34;;;27.17;51.18
74573;BME280;63071;51.526;-0.134;2022-08-25T07:48:51;101246.59;;;27.13;51.89
74573;BME280;63071;51.526;-0.134;2022-08-25T07:51:16;101225.50;;;27.08;52.01
74573;BME280;63071;51.526;-0.134;2022-08-25T07:53:42;101210.59;;;27.04;52.03
74573;BME280;63071;51.526;-0.134;2022-08-25T07:56:11;101219.78;;;27.03;51.97
74573;BME280;63071;51.526;-0.134;2022-08-25T07:58:38;101236.28;;;27.01;52.00
74573;BME280;63071;51.526;-0.134;2022-08-25T08:01:04;101236.66;;;27.03;51.64
74573;BME280;63071;51.526;-0.134;2022-08-25T08:03:30;101241.22;;;27.03;51.84
74573;BME280;63071;51.526;-0.134;2022-08-25T08:05:59;101241.22;;;27.03;51.88
74573;BME280;63071;51.526;-0.134;2022-08-25T08:08:24;101259.25;;;27.06;51.37
74573;BME280;63071;51.526;-0.134;2022-08-25T08:10:50;101257.34;;;27.10;51.68
74573;BME280;63071;51.526;-0.134;2022-08-25T08:13:15;101254.28;;;27.11;51.30
74573;BME280;63071;51.526;-0.134;2022-08-25T08:15:42;101271.13;;;27.15;50.84
74573;BME280;63071;51.526;-0.134;2022-08-25T08:18:09;101282.25;;;27.14;51.23
74573;BME280;63071;51.526;-0.134;2022-08-25T08:20:35;101284.91;;;27.07;50.84
74573;BME280;63071;51.526;-0.134;2022-08-25T08:23:01;101289.16;;;27.11;51.58
74573;BME280;63071;51.526;-0.134;2022-08-25T08:25:27;101291.06;;;27.11;51.63
74573;BME280;63071;51.526;-0.134;2022-08-25T08:27:53;101275.75;;;27.11;50.98
74573;BME280;63071;51.526;-0.134;2022-08-25T08:30:19;101271.88;;;27.09;50.91
74573;BME280;63071;51.526;-0.134;2022-08-25T08:32:45;101268.81;;;27.07;50.94
74573;BME280;63071;51.526;-0.134;2022-08-25T08:35:14;101271.13;;;27.05;50.98
74573;BME280;63071;51.526;-0.134;2022-08-25T08:37:46;101268.06;;;27.03;51.12
74573;BME280;63071;51.526;-0.134;2022-08-25T08:40:15;101272.66;;;27.06;50.97
74573;BME280;63071;51.526;-0.134;2022-08-25T08:42:58;101268.44;;;27.05;51.01
74573;BME280;63071;51.526;-0.134;2022-08-25T08:45:44;101263.06;;;27.05;51.25
74573;BME280;63071;51.526;-0.134;2022-08-25T08:51:16;101277.25;;;27.09;51.21
74573;BME280;63071;51.526;-0.134;2022-08-25T08:53:55;101287.22;;;27.08;51.20
74573;BME280;63071;51.526;-0.134;2022-08-25T08:58:58;101274.97;;;27.07;51.72
74573;BME280;63071;51.526;-0.134;2022-08-25T09:01:31;101262.69;;;27.03;51.08
74573;BME280;63071;51.526;-0.134;2022-08-25T09:03:59;101280.34;;;27.04;51.72
74573;BME280;63071;51.526;-0.134;2022-08-25T09:06:33;101301.78;;;27.04;51.23
74573;BME280;63071;51.526;-0.134;2022-08-25T09:09:04;101295.66;;;27.07;51.18
74573;BME280;63071;51.526;-0.134;2022-08-25T09:14:43;101298.34;;;27.10;51.10
74573;BME280;63071;51.526;-0.134;2022-08-25T09:17:41;101303.31;;;27.12;51.01
74573;BME280;63071;51.526;-0.134;2022-08-25T09:25:40;101297.19;;;27.18;51.27
74573;BME280;63071;51.526;-0.134;2022-08-25T09:31:01;101279.56;;;27.17;50.57
74573;BME280;63071;51.526;-0.134;2022-08-25T09:33:30;101287.63;;;27.21;51.09
74573;BME280;63071;51.526;-0.134;2022-08-25T09:35:56;101291.06;;;27.18;50.80
74573;BME280;63071;51.526;-0.134;2022-08-25T09:38:23;101287.63;;;27.14;51.23
74573;BME280;63071;51.526;-0.134;2022-08-25T09:40:54;101271.13;;;27.12;50.37
74573;BME280;63071;51.526;-0.134;2022-08-25T09:43:44;101281.50;;;27.13;50.76
74573;BME280;63071;51.526;-0.134;2022-08-25T09:46:25;101285.69;;;27.11;51.18
74573;BME280;63071;51.526;-0.134;2022-08-25T09:48:55;101283.41;;;27.09;51.43
74573;BME280;63071;51.526;-0.134;2022-08-25T09:51:29;101280.31;;;27.11;50.88
74573;BME280;63071;51.526;-0.134;2022-08-25T09:56:58;101281.09;;;27.08;51.55
74573;BME280;63071;51.526;-0.134;2022-08-25T09:59:34;101277.28;;;27.05;51.02
74573;BME280;63071;51.526;-0.134;2022-08-25T10:02:24;101276.13;;;27.06;51.57
74573;BME280;63071;51.526;-0.134;2022-08-25T10:04:50;101286.47;;;27.04;51.75
74573;BME280;63071;51.526;-0.134;2022-08-25T10:07:29;101288.75;;;27.13;51.79
74573;BME280;63071;51.526;-0.134;2022-08-25T10:10:04;101281.13;;;27.15;52.66
74573;BME280;63071;51.526;-0.134;2022-08-25T10:12:44;101271.13;;;27.19;52.52
74573;BME280;63071;51.526;-0.134;2022-08-25T10:15:21;101267.66;;;27.18;51.23
74573;BME280;63071;51.526;-0.134;2022-08-25T10:17:48;101269.59;;;27.18;52.21
74573;BME280;63071;51.526;-0.134;2022-08-25T10:20:26;101274.63;;;27.23;51.76
74573;BME280;63071;51.526;-0.134;2022-08-25T10:23:12;101280.34;;;27.29;51.54
74573;BME280;63071;51.526;-0.134;2022-08-25T10:25:45;101275.34;;;27.34;50.78
74573;BME280;63071;51.526;-0.134;2022-08-25T10:28:36;101271.13;;;27.37;51.37
74573;BME280;63071;51.526;-0.134;2022-08-25T10:31:23;101272.66;;;27.38;50.49
74573;BME280;63071;51.526;-0.134;2022-08-25T10:50:40;101263.34;;;27.78;50.07
74573;BME280;63071;51.526;-0.134;2022-08-25T10:53:27;101258.00;;;27.78;50.29
74573;BME280;63071;51.526;-0.134;2022-08-25T10:56:13;101246.47;;;27.78;51.09
74573;BME280;63071;51.526;-0.134;2022-08-25T11:04:11;101229.22;;;27.75;51.38
74573;BME280;63071;51.526;-0.134;2022-08-25T11:06:43;101230.38;;;27.78;50.80
74573;BME280;63071;51.526;-0.134;2022-08-25T11:09:21;101223.44;;;27.77;50.13
74573;BME280;63071;51.526;-0.134;2022-08-25T11:11:59;101220.75;;;27.81;50.51
74573;BME280;63071;51.526;-0.134;2022-08-25T11:14:42;101205.00;;;27.86;50.14
74573;BME280;63071;51.526;-0.134;2022-08-25T11:17:24;101195.03;;;27.90;49.98
74573;BME280;63071;51.526;-0.134;2022-08-25T11:20:02;101190.44;;;27.87;50.43
74573;BME280;63071;51.526;-0.134;2022-08-25T11:22:39;101191.59;;;27.83;50.51
74573;BME280;63071;51.526;-0.134;2022-08-25T11:27:56;101183.91;;;27.88;50.45
74573;BME280;63071;51.526;-0.134;2022-08-25T11:30:23;101179.25;;;27.96;50.43
74573;BME280;63071;51.526;-0.134;2022-08-25T11:32:50;101181.91;;;28.00;50.18
74573;BME280;63071;51.526;-0.134;2022-08-25T11:35:37;101186.16;;;28.01;50.10
74573;BME280;63071;51.526;-0.134;2022-08-25T11:49:56;101290.06;;;28.18;49.56
74573;BME280;63071;51.526;-0.134;2022-08-25T11:55:18;101278.19;;;28.15;49.49
74573;BME280;63071;51.526;-0.134;2022-08-25T11:57:48;101289.00;;;28.05;49.63
74573;BME280;63071;51.526;-0.134;2022-08-25T12:00:39;101295.50;;;28.07;50.40
74573;BME280;63071;51.526;-0.134;2022-08-25T12:06:22;101277.06;;;28.13;49.86
74573;BME280;63071;51.526;-0.134;2022-08-25T12:14:31;101296.34;;;27.86;50.45
74573;BME280;63071;51.526;-0.134;2022-08-25T12:17:07;101309.75;;;27.90;50.29
74573;BME280;63071;51.526;-0.134;2022-08-25T12:27:28;101295.53;;;28.00;50.26
74573;BME280;63071;51.526;-0.134;2022-08-25T12:30:04;101302.06;;;28.03;50.11
74573;BME280;63071;51.526;-0.134;2022-08-25T12:40:57;101308.94;;;28.14;49.27
74573;BME280;63071;51.526;-0.134;2022-08-25T12:43:28;101310.81;;;28.17;48.98
74573;BME280;63071;51.526;-0.134;2022-08-25T12:51:18;101297.81;;;28.12;49.32
74573;BME280;63071;51.526;-0.134;2022-08-25T12:56:52;101319.25;;;28.16;49.44
74573;BME280;63071;51.526;-0.134;2022-08-25T12:59:22;101314.25;;;28.18;49.05
74573;BME280;63071;51.526;-0.134;2022-08-25T13:13:36;101306.63;;;28.16;48.61
74573;BME280;63071;51.526;-0.134;2022-08-25T13:16:08;101310.06;;;28.17;49.18
74573;BME280;63071;51.526;-0.134;2022-08-25T13:18:40;101310.81;;;28.17;48.97
74573;BME280;63071;51.526;-0.134;2022-08-25T13:23:47;101308.13;;;28.21;48.37
74573;BME280;63071;51.526;-0.134;2022-08-25T13:26:20;101325.00;;;28.29;48.73
74573;BME280;63071;51.526;-0.134;2022-08-25T13:28:55;101316.13;;;28.28;48.75
74573;BME280;63071;51.526;-0.134;2022-08-25T13:31:22;101317.69;;;28.26;48.40
74573;BME280;63071;51.526;-0.134;2022-08-25T13:33:59;101321.50;;;28.28;48.00
74573;BME280;63071;51.526;-0.134;2022-08-25T13:36:29;101322.69;;;28.24;47.96
74573;BME280;63071;51.526;-0.134;2022-08-25T13:39:20;101319.25;;;28.27;48.27
74573;BME280;63071;51.526;-0.134;2022-08-25T13:41:49;101325.75;;;28.29;48.55
74573;BME280;63071;51.526;-0.134;2022-08-25T13:44:18;101311.53;;;28.29;48.04
74573;BME280;63071;51.526;-0.134;2022-08-25T13:46:44;101323.38;;;28.38;47.77
74573;BME280;63071;51.526;-0.134;2022-08-25T13:49:23;101318.38;;;28.41;47.96
74573;BME280;63071;51.526;-0.134;2022-08-25T13:51:51;101316.47;;;28.37;47.47
74573;BME280;63071;51.526;-0.134;2022-08-25T13:54:28;101326.47;;;28.37;47.88
74573;BME280;63071;51.526;-0.134;2022-08-25T13:57:05;101319.94;;;28.38;47.56
74573;BME280;63071;51.526;-0.134;2022-08-25T13:59:37;101319.16;;;28.41;47.67
74573;BME280;63071;51.526;-0.134;2022-08-25T14:02:05;101322.59;;;28.45;47.65
74573;BME280;63071;51.526;-0.134;2022-08-25T14:04:44;101317.59;;;28.44;47.22
74573;BME280;63071;51.526;-0.134;2022-08-25T14:10:18;101322.69;;;28.24;47.43
74573;BME280;63071;51.526;-0.134;2022-08-25T14:13:11;101318.13;;;28.13;47.75
74573;BME280;63071;51.526;-0.134;2022-08-25T14:15:37;101322.00;;;28.09;47.70
74573;BME280;63071;51.526;-0.134;2022-08-25T14:18:28;101324.69;;;28.09;47.55
74573;BME280;63071;51.526;-0.134;2022-08-25T14:20:56;101317.00;;;28.11;47.92
74573;BME280;63071;51.526;-0.134;2022-08-25T14:23:25;101326.56;;;28.15;47.41
74573;BME280;63071;51.526;-0.134;2022-08-25T14:25:57;101317.31;;;28.24;47.52
74573;BME280;63071;51.526;-0.134;2022-08-25T14:28:25;101326.88;;;28.28;47.33
74573;BME280;63071;51.526;-0.134;2022-08-25T14:31:05;101327.69;;;28.25;47.26
74573;BME280;63071;51.526;-0.134;2022-08-25T14:33:37;101328.06;;;28.20;47.29
74573;BME280;63071;51.526;-0.134;2022-08-25T14:36:03;101319.31;;;28.12;47.06
74573;BME280;63071;51.526;-0.134;2022-08-25T14:38:30;101320.88;;;28.06;47.54
74573;BME280;63071;51.526;-0.134;2022-08-25T14:40:56;101327.00;;;28.03;47.99
74573;BME280;63071;51.526;-0.134;2022-08-25T14:43:22;101329.69;;;28.00;47.98
74573;BME280;63071;51.526;-0.134;2022-08-25T14:45:48;101330.06;;;27.98;48.09
74573;BME280;63071;51.526;-0.134;2022-08-25T14:48:29;101319.34;;;27.98;47.85